Time;durP1;ratioP1;P1;durP2;ratioP2;P2;SDS_P1;SDS_P2;PMS_P1;PMS_P2;Temp;Humidity;BMP_temperature;BMP_pressure;BME280_temperature;BME280_humidity;BME280_pressure;Samples;Min_cycle;Max_cycle;Signal;HPM_P1;HPM_P2
2020/12/19 00:01:30;;;;;;;14.93;11.77;;;7.80;99.90;;;;;;5013826;28;20205;-67
2020/12/19 00:03:56;;;;;;;17.63;12.80;;;7.80;99.90;;;;;;5010540;28;21290;-68
2020/12/19 00:06:23;;;;;;;14.77;12.47;;;7.90;99.90;;;;;;5005794;28;20235;-68
2020/12/19 00:08:49;;;;;;;19.93;12.97;;;7.90;99.90;;;;;;5012322;28;20559;-68
2020/12/19 00:11:16;;;;;;;17.87;13.03;;;7.90;99.90;;;;;;5014514;28;20209;-68
2020/12/19 00:13:42;;;;;;;19.70;14.63;;;7.80;99.90;;;;;;5013412;28;20544;-68
2020/12/19 00:16:13;;;;;;;19.10;14.00;;;7.80;99.90;;;;;;5015222;28;20212;-68
2020/12/19 00:18:40;;;;;;;20.77;14.47;;;7.70;99.90;;;;;;5011875;28;20216;-67
2020/12/19 00:21:07;;;;;;;21.37;14.80;;;7.70;99.90;;;;;;5010307;28;20208;-68
2020/12/19 00:23:33;;;;;;;19.77;14.33;;;7.60;99.90;;;;;;5013221;28;20196;-67
2020/12/19 00:25:59;;;;;;;20.23;14.10;;;7.50;99.90;;;;;;5013913;28;20224;-68
2020/12/19 00:28:26;;;;;;;17.73;13.53;;;7.50;99.90;;;;;;5012006;28;20224;-68
2020/12/19 00:30:52;;;;;;;17.57;14.20;;;7.50;99.90;;;;;;5011240;28;20193;-67
2020/12/19 00:33:19;;;;;;;19.17;13.57;;;7.40;99.90;;;;;;5010091;28;20225;-67
2020/12/19 00:35:46;;;;;;;18.57;13.90;;;7.40;99.90;;;;;;5013337;28;20558;-67
2020/12/19 00:38:13;;;;;;;22.20;13.97;;;7.30;99.90;;;;;;5010048;28;20374;-68
2020/12/19 00:40:39;;;;;;;23.37;15.10;;;7.30;99.90;;;;;;5013174;28;20208;-67
2020/12/19 00:43:06;;;;;;;24.17;15.93;;;7.30;99.90;;;;;;5014407;28;20204;-67
2020/12/19 00:45:32;;;;;;;25.20;17.27;;;7.30;99.90;;;;;;5013540;28;20209;-67
2020/12/19 00:47:59;;;;;;;24.30;16.67;;;7.30;99.90;;;;;;5009828;28;20204;-68
2020/12/19 00:50:25;;;;;;;25.97;17.23;;;7.30;99.90;;;;;;5012535;28;20367;-67
2020/12/19 00:52:53;;;;;;;26.57;16.10;;;7.40;99.90;;;;;;5012998;28;20561;-68
2020/12/19 00:55:19;;;;;;;23.23;16.53;;;7.50;99.90;;;;;;5011530;28;20203;-67
2020/12/19 00:57:45;;;;;;;25.20;16.73;;;7.50;99.90;;;;;;5009297;28;20592;-67
2020/12/19 01:00:12;;;;;;;25.80;16.33;;;7.50;99.90;;;;;;5009009;28;20200;-68
2020/12/19 01:02:39;;;;;;;20.37;14.77;;;7.50;99.90;;;;;;5013677;28;20215;-67
2020/12/19 01:05:07;;;;;;;20.90;14.13;;;7.50;99.90;;;;;;5010578;28;20196;-67
2020/12/19 01:07:35;;;;;;;18.93;14.17;;;7.50;99.90;;;;;;5011660;28;20243;-68
2020/12/19 01:10:04;;;;;;;20.70;14.10;;;7.60;99.90;;;;;;5013873;28;20538;-68
2020/12/19 01:12:31;;;;;;;19.97;13.93;;;7.50;99.90;;;;;;5008162;28;20200;-67
2020/12/19 01:14:57;;;;;;;18.43;13.53;;;7.50;99.90;;;;;;5008463;28;20205;-67
2020/12/19 01:17:23;;;;;;;17.93;13.77;;;7.50;99.90;;;;;;5009150;28;20220;-68
2020/12/19 01:19:50;;;;;;;19.73;14.20;;;7.50;99.90;;;;;;5008777;28;20290;-68
2020/12/19 01:22:16;;;;;;;19.90;13.77;;;7.40;99.90;;;;;;5009236;28;20659;-68
2020/12/19 01:24:43;;;;;;;22.20;14.03;;;7.50;99.90;;;;;;5009046;28;20205;-67
2020/12/19 01:27:10;;;;;;;19.73;14.53;;;7.40;99.90;;;;;;5013400;28;20251;-68
2020/12/19 01:29:37;;;;;;;18.33;13.40;;;7.40;99.90;;;;;;5010466;28;20255;-68
2020/12/19 01:32:03;;;;;;;25.63;15.00;;;7.30;99.90;;;;;;5013216;28;20219;-68
2020/12/19 01:34:30;;;;;;;21.00;13.93;;;7.40;99.90;;;;;;5010792;28;20232;-68
2020/12/19 01:36:56;;;;;;;23.37;15.37;;;7.30;99.90;;;;;;5009945;28;21047;-68
2020/12/19 01:39:23;;;;;;;20.90;14.43;;;7.30;99.90;;;;;;5012209;28;20224;-68
2020/12/19 01:41:49;;;;;;;19.33;13.40;;;7.30;99.90;;;;;;5011273;28;20287;-68
2020/12/19 01:44:16;;;;;;;19.60;13.13;;;7.30;99.90;;;;;;5010208;28;20210;-68
2020/12/19 01:46:53;;;;;;;23.13;14.47;;;7.30;99.90;;;;;;5011462;28;22377;-68
2020/12/19 01:49:21;;;;;;;27.13;15.00;;;7.30;99.90;;;;;;5011788;28;20610;-68
2020/12/19 01:51:51;;;;;;;26.27;15.73;;;7.20;99.90;;;;;;5010399;28;20330;-68
2020/12/19 01:54:18;;;;;;;22.47;14.27;;;7.10;99.90;;;;;;5012100;28;20235;-67
2020/12/19 01:56:50;;;;;;;21.53;14.80;;;7.00;99.90;;;;;;5011005;28;20576;-68
2020/12/19 01:59:18;;;;;;;20.73;14.40;;;6.90;99.90;;;;;;5012432;28;20246;-70
2020/12/19 02:01:47;;;;;;;21.90;14.17;;;6.90;99.90;;;;;;5011119;28;20201;-69
2020/12/19 02:04:14;;;;;;;20.80;13.83;;;6.90;99.90;;;;;;5010169;28;20201;-68
2020/12/19 02:06:42;;;;;;;19.90;13.77;;;6.90;99.90;;;;;;5010202;28;20216;-68
2020/12/19 02:09:09;;;;;;;17.77;13.43;;;6.80;99.90;;;;;;5010822;28;20254;-68
2020/12/19 02:11:36;;;;;;;20.27;14.03;;;6.80;99.90;;;;;;5012195;28;20193;-68
2020/12/19 02:14:06;;;;;;;19.37;13.73;;;6.70;99.90;;;;;;5014857;28;20200;-68
2020/12/19 02:16:34;;;;;;;19.70;13.73;;;6.70;99.90;;;;;;5009304;28;20197;-69
2020/12/19 02:19:01;;;;;;;18.97;13.43;;;6.70;99.90;;;;;;5011753;28;20315;-67
2020/12/19 02:21:27;;;;;;;18.37;13.23;;;6.70;99.90;;;;;;5007591;28;20215;-68
2020/12/19 02:23:54;;;;;;;18.13;13.27;;;6.70;99.90;;;;;;5011671;28;20205;-68
2020/12/19 02:26:21;;;;;;;19.77;13.57;;;6.70;99.90;;;;;;5008161;28;20223;-68
2020/12/19 02:28:47;;;;;;;19.07;13.70;;;6.70;99.90;;;;;;5010416;28;20232;-69
2020/12/19 02:31:14;;;;;;;20.37;13.20;;;6.70;99.90;;;;;;5009231;28;20205;-68
2020/12/19 02:33:40;;;;;;;21.40;14.00;;;6.80;99.90;;;;;;5009909;28;20228;-68
2020/12/19 02:36:07;;;;;;;18.00;13.73;;;6.90;99.90;;;;;;5007658;28;20232;-69
2020/12/19 02:38:33;;;;;;;22.50;14.63;;;6.90;99.90;;;;;;5011654;28;20223;-68
2020/12/19 02:41:01;;;;;;;17.90;12.40;;;6.90;99.90;;;;;;5003862;28;20236;-68
2020/12/19 02:43:27;;;;;;;19.23;13.10;;;6.90;99.90;;;;;;5003237;28;20311;-68
2020/12/19 02:45:53;;;;;;;19.10;12.60;;;6.90;99.90;;;;;;5006773;28;20212;-68
2020/12/19 02:48:20;;;;;;;16.30;12.17;;;6.90;99.90;;;;;;5005111;28;20201;-69
2020/12/19 02:50:46;;;;;;;19.23;12.50;;;7.00;99.90;;;;;;5010680;28;20340;-68
2020/12/19 02:53:13;;;;;;;17.03;12.63;;;7.20;99.90;;;;;;5014361;28;20199;-68
2020/12/19 02:55:39;;;;;;;16.30;12.33;;;7.20;99.90;;;;;;5014724;28;20567;-69
2020/12/19 02:58:07;;;;;;;17.23;13.10;;;7.30;99.90;;;;;;5012550;28;20227;-68
2020/12/19 03:00:33;;;;;;;16.37;12.27;;;7.40;99.90;;;;;;5014564;28;20255;-69
2020/12/19 03:02:59;;;;;;;14.50;10.67;;;7.40;99.90;;;;;;5017209;28;20197;-68
2020/12/19 03:05:26;;;;;;;13.80;11.07;;;7.40;99.90;;;;;;5008386;28;20575;-67
2020/12/19 03:07:52;;;;;;;14.43;11.40;;;7.30;99.90;;;;;;5012407;28;20233;-69
2020/12/19 03:10:19;;;;;;;14.40;10.50;;;7.40;99.90;;;;;;5012749;28;20208;-69
2020/12/19 03:12:45;;;;;;;12.67;10.57;;;7.40;99.90;;;;;;5009592;28;20197;-69
2020/12/19 03:15:13;;;;;;;14.00;10.43;;;7.30;99.90;;;;;;5011348;28;20192;-68
2020/12/19 03:17:39;;;;;;;11.37;10.10;;;7.30;99.90;;;;;;5013747;28;20659;-68
2020/12/19 03:20:05;;;;;;;16.13;10.97;;;7.20;99.90;;;;;;5011871;28;20257;-67
2020/12/19 03:22:32;;;;;;;13.63;10.00;;;7.20;99.90;;;;;;5010463;28;20674;-68
2020/12/19 03:24:58;;;;;;;12.87;10.47;;;7.20;99.90;;;;;;5013204;28;20201;-68
2020/12/19 03:27:25;;;;;;;12.53;9.93;;;7.30;99.90;;;;;;5011102;28;20200;-68
2020/12/19 03:29:51;;;;;;;12.77;10.13;;;7.20;99.90;;;;;;5008211;28;20201;-68
2020/12/19 03:32:18;;;;;;;13.33;10.90;;;7.20;99.90;;;;;;5012997;28;20205;-68
2020/12/19 03:34:45;;;;;;;15.43;10.60;;;7.20;99.90;;;;;;5014946;28;20240;-68
2020/12/19 03:37:11;;;;;;;12.87;10.10;;;7.20;99.90;;;;;;5007944;28;20350;-67
2020/12/19 03:39:38;;;;;;;13.93;10.53;;;7.10;99.90;;;;;;5011524;28;20238;-67
2020/12/19 03:42:04;;;;;;;14.40;10.27;;;7.10;99.90;;;;;;5011659;28;20239;-68
2020/12/19 03:44:31;;;;;;;15.37;10.57;;;7.10;99.90;;;;;;5010642;28;20227;-67
2020/12/19 03:46:57;;;;;;;15.83;9.93;;;7.10;99.90;;;;;;5009564;28;20224;-67
2020/12/19 03:49:24;;;;;;;13.43;10.47;;;7.10;99.90;;;;;;5010541;28;20677;-68
2020/12/19 03:51:51;;;;;;;12.13;10.00;;;7.20;99.90;;;;;;5012971;28;20237;-68
2020/12/19 03:54:17;;;;;;;12.17;10.40;;;7.30;99.90;;;;;;5012471;28;20201;-68
2020/12/19 03:56:44;;;;;;;13.37;9.87;;;7.30;99.90;;;;;;5013223;28;21322;-68
2020/12/19 03:59:10;;;;;;;12.23;10.53;;;7.40;99.90;;;;;;5015663;28;20227;-68
2020/12/19 04:01:37;;;;;;;12.47;10.00;;;7.50;99.90;;;;;;5018940;28;20263;-68
2020/12/19 04:04:03;;;;;;;11.27;9.60;;;7.60;99.90;;;;;;5013141;28;20715;-68
2020/12/19 04:06:30;;;;;;;11.73;8.60;;;7.60;99.90;;;;;;5010899;28;20266;-68
2020/12/19 04:08:57;;;;;;;11.17;8.93;;;7.70;99.90;;;;;;5009104;28;20227;-68
2020/12/19 04:11:23;;;;;;;10.43;8.43;;;7.70;99.90;;;;;;5014133;28;20557;-68
2020/12/19 04:13:50;;;;;;;13.17;9.17;;;7.70;99.90;;;;;;5013280;28;20970;-67
2020/12/19 04:16:16;;;;;;;9.97;7.70;;;7.70;99.90;;;;;;5010165;28;20201;-68
2020/12/19 04:18:43;;;;;;;11.03;8.73;;;7.80;99.90;;;;;;5010565;28;20252;-68
2020/12/19 04:21:09;;;;;;;10.00;7.77;;;7.80;99.90;;;;;;5012166;28;20203;-67
2020/12/19 04:23:37;;;;;;;11.63;8.60;;;7.80;99.90;;;;;;5014796;28;20234;-68
2020/12/19 04:26:03;;;;;;;9.77;8.77;;;7.80;99.90;;;;;;5019432;28;20671;-68
2020/12/19 04:28:30;;;;;;;11.87;8.13;;;7.80;99.90;;;;;;5008877;28;20246;-69
2020/12/19 04:30:56;;;;;;;9.70;7.73;;;7.80;99.90;;;;;;5011518;28;20199;-69
2020/12/19 04:33:24;;;;;;;10.57;8.03;;;7.80;99.90;;;;;;5010289;28;20284;-68
2020/12/19 04:35:51;;;;;;;10.67;7.83;;;7.80;99.90;;;;;;5009152;28;20202;-67
2020/12/19 04:38:17;;;;;;;10.40;8.00;;;7.90;99.90;;;;;;5010619;28;21033;-68
2020/12/19 04:40:45;;;;;;;12.30;8.47;;;7.90;99.90;;;;;;5012701;28;20204;-68
2020/12/19 04:43:14;;;;;;;8.70;7.63;;;7.90;99.90;;;;;;5013166;28;20195;-68
2020/12/19 04:45:42;;;;;;;10.43;8.20;;;8.00;99.90;;;;;;5012881;28;20215;-68
2020/12/19 04:48:08;;;;;;;9.43;7.63;;;8.00;99.90;;;;;;5013087;28;20582;-68
2020/12/19 04:50:39;;;;;;;10.07;8.27;;;8.00;99.90;;;;;;5012496;28;20204;-67
2020/12/19 04:53:16;;;;;;;10.77;8.27;;;8.00;99.90;;;;;;5012625;28;20258;-68
2020/12/19 04:55:43;;;;;;;11.10;8.00;;;8.00;99.90;;;;;;5009120;28;20669;-68
2020/12/19 04:58:12;;;;;;;12.40;8.00;;;8.10;99.90;;;;;;5014517;28;20334;-68
2020/12/19 05:00:38;;;;;;;12.13;7.90;;;8.10;99.90;;;;;;5013856;28;20859;-67
2020/12/19 05:03:05;;;;;;;11.50;8.50;;;8.10;99.90;;;;;;5010214;28;20657;-68
2020/12/19 05:05:32;;;;;;;11.20;8.10;;;8.10;99.90;;;;;;5013168;28;20193;-68
2020/12/19 05:07:59;;;;;;;9.73;8.17;;;8.20;99.90;;;;;;5012952;28;20200;-69
2020/12/19 05:10:25;;;;;;;11.60;8.63;;;8.20;99.90;;;;;;5011808;28;20216;-68
2020/12/19 05:12:52;;;;;;;13.03;8.97;;;8.20;99.90;;;;;;5013611;28;20484;-68
2020/12/19 05:15:20;;;;;;;10.20;8.67;;;8.30;99.90;;;;;;5008295;28;20243;-69
2020/12/19 05:17:57;;;;;;;10.87;8.13;;;8.30;99.90;;;;;;5011566;28;20297;-68
2020/12/19 05:20:28;;;;;;;10.17;8.13;;;8.30;99.90;;;;;;5010138;28;20650;-68
2020/12/19 05:22:55;;;;;;;11.90;8.47;;;8.40;99.90;;;;;;5009788;28;20200;-67
2020/12/19 05:25:23;;;;;;;11.40;8.40;;;8.40;99.90;;;;;;5014904;28;21076;-68
2020/12/19 05:27:50;;;;;;;13.07;8.87;;;8.40;99.90;;;;;;5009652;28;20250;-68
2020/12/19 05:30:17;;;;;;;12.57;8.90;;;8.40;99.90;;;;;;5010076;28;20197;-68
2020/12/19 05:32:47;;;;;;;10.67;8.57;;;8.40;99.90;;;;;;5013677;28;20196;-67
2020/12/19 05:35:14;;;;;;;12.50;9.03;;;8.40;99.90;;;;;;5014596;28;20235;-66
2020/12/19 05:37:41;;;;;;;10.60;8.90;;;8.40;99.90;;;;;;5018282;28;20244;-68
2020/12/19 05:40:09;;;;;;;12.80;8.97;;;8.40;99.90;;;;;;5019404;28;20231;-67
2020/12/19 05:42:37;;;;;;;11.53;9.17;;;8.40;99.90;;;;;;5018688;28;20200;-67
2020/12/19 05:45:13;;;;;;;10.00;8.57;;;8.40;99.90;;;;;;5020977;28;20216;-66
2020/12/19 05:47:40;;;;;;;11.77;8.93;;;8.30;99.90;;;;;;5018157;28;20294;-68
2020/12/19 05:50:07;;;;;;;10.70;8.93;;;8.30;99.90;;;;;;5020176;28;20208;-66
2020/12/19 05:52:36;;;;;;;12.97;9.23;;;8.30;99.90;;;;;;5019293;28;20199;-66
2020/12/19 05:55:07;;;;;;;12.60;9.67;;;8.30;99.90;;;;;;5019490;28;20203;-67
2020/12/19 05:57:35;;;;;;;11.57;8.60;;;8.40;99.90;;;;;;5021660;28;20280;-66
2020/12/19 06:00:06;;;;;;;13.37;9.73;;;8.40;99.90;;;;;;5023648;28;20231;-66
2020/12/19 06:02:34;;;;;;;14.00;10.13;;;8.40;99.90;;;;;;5009033;28;20203;-67
2020/12/19 06:05:01;;;;;;;15.20;10.13;;;8.40;99.90;;;;;;5014211;28;20201;-68
2020/12/19 06:07:37;;;;;;;13.70;9.60;;;8.40;99.90;;;;;;5011437;28;20274;-68
2020/12/19 06:10:06;;;;;;;15.50;10.80;;;8.30;99.90;;;;;;5012547;28;20206;-68
2020/12/19 06:12:43;;;;;;;17.67;10.93;;;8.40;99.90;;;;;;5017903;28;20211;-68
2020/12/19 06:15:16;;;;;;;15.60;11.50;;;8.30;99.90;;;;;;5017485;28;20203;-68
2020/12/19 06:17:48;;;;;;;18.43;12.10;;;8.30;99.90;;;;;;5017387;28;20192;-68
2020/12/19 06:20:16;;;;;;;18.07;12.27;;;8.40;99.90;;;;;;5017827;28;20230;-68
2020/12/19 06:22:44;;;;;;;19.17;12.03;;;8.40;99.90;;;;;;5017413;28;20226;-68
2020/12/19 06:25:11;;;;;;;19.77;13.53;;;8.50;99.90;;;;;;5011877;28;20755;-68
2020/12/19 06:27:41;;;;;;;18.40;13.47;;;8.60;99.90;;;;;;5015924;28;20196;-67
2020/12/19 06:30:28;;;;;;;19.27;13.80;;;8.70;99.90;;;;;;5017483;28;20685;-68
2020/12/19 06:33:11;;;;;;;18.23;12.47;;;8.70;99.90;;;;;;5009264;28;20207;-68
2020/12/19 06:35:39;;;;;;;19.30;13.07;;;8.80;99.90;;;;;;5018784;28;20197;-66
2020/12/19 06:38:06;;;;;;;18.77;13.70;;;8.90;99.90;;;;;;5012072;28;20207;-68
2020/12/19 06:40:39;;;;;;;20.37;14.10;;;9.00;99.90;;;;;;5014176;28;21246;-66
2020/12/19 06:43:14;;;;;;;19.67;13.93;;;9.00;99.90;;;;;;5013089;28;20197;-68
2020/12/19 06:45:40;;;;;;;22.27;14.50;;;9.10;99.90;;;;;;5015241;28;20200;-69
2020/12/19 06:48:31;;;;;;;22.97;14.77;;;9.10;99.90;;;;;;5016021;28;20258;-68
2020/12/19 06:50:59;;;;;;;22.80;14.33;;;9.20;99.90;;;;;;5014093;28;20201;-68
2020/12/19 06:53:28;;;;;;;21.90;14.50;;;9.20;99.90;;;;;;5017601;28;20200;-69
2020/12/19 06:55:54;;;;;;;19.97;14.00;;;9.30;99.90;;;;;;5014293;28;20597;-68
2020/12/19 06:58:32;;;;;;;23.50;14.70;;;9.30;99.90;;;;;;5011545;28;20305;-67
2020/12/19 07:00:59;;;;;;;23.33;14.30;;;9.40;99.90;;;;;;5012354;28;20191;-68
2020/12/19 07:03:36;;;;;;;21.47;14.57;;;9.40;99.90;;;;;;5012976;28;20248;-68
2020/12/19 07:06:13;;;;;;;23.47;15.17;;;9.40;99.90;;;;;;5013689;28;20224;-68
2020/12/19 07:08:41;;;;;;;18.27;14.20;;;9.40;99.90;;;;;;5016154;28;20258;-69
2020/12/19 07:11:13;;;;;;;21.63;14.13;;;9.40;99.90;;;;;;5013037;28;20201;-68
2020/12/19 07:13:57;;;;;;;17.10;12.63;;;9.50;99.90;;;;;;5011603;28;20290;-67
2020/12/19 07:16:44;;;;;;;18.50;13.13;;;9.50;99.90;;;;;;5014950;28;22036;-67
2020/12/19 07:19:18;;;;;;;16.80;12.67;;;9.40;99.90;;;;;;5011344;28;20244;-67
2020/12/19 07:21:45;;;;;;;15.83;11.30;;;9.30;99.90;;;;;;5007765;28;20243;-69
2020/12/19 07:24:12;;;;;;;16.37;12.00;;;9.30;99.90;;;;;;5009652;28;21231;-68
2020/12/19 07:26:39;;;;;;;17.03;12.17;;;9.20;99.90;;;;;;5012199;28;20201;-67
2020/12/19 07:29:16;;;;;;;15.80;11.13;;;9.10;99.90;;;;;;5013984;28;21991;-67
2020/12/19 07:31:51;;;;;;;16.50;11.90;;;9.10;99.90;;;;;;5011116;28;20196;-68
2020/12/19 07:34:18;;;;;;;15.73;10.93;;;9.10;99.90;;;;;;4987268;28;725409;-67
2020/12/19 07:36:46;;;;;;;17.10;12.03;;;9.00;99.90;;;;;;5011584;28;20219;-67
2020/12/19 07:39:15;;;;;;;17.73;11.93;;;9.10;99.90;;;;;;5015993;28;20239;-69
2020/12/19 07:41:43;;;;;;;15.53;12.23;;;9.10;99.90;;;;;;5010716;28;20196;-69
2020/12/19 07:44:15;;;;;;;15.60;11.40;;;9.20;99.90;;;;;;5014297;28;20213;-68
2020/12/19 07:46:53;;;;;;;14.53;11.03;;;9.20;99.90;;;;;;5014304;28;20251;-67
2020/12/19 07:49:31;;;;;;;15.37;10.73;;;9.30;99.90;;;;;;5018634;28;20216;-67
2020/12/19 07:52:12;;;;;;;15.93;10.53;;;9.40;99.90;;;;;;5012903;28;20195;-68
2020/12/19 07:54:41;;;;;;;13.03;10.27;;;9.50;99.90;;;;;;5017221;28;21087;-67
2020/12/19 07:57:08;;;;;;;13.60;10.07;;;9.60;99.90;;;;;;5014671;28;20589;-69
2020/12/19 07:59:35;;;;;;;13.53;10.53;;;9.70;99.90;;;;;;5012109;28;20233;-68
2020/12/19 08:02:04;;;;;;;12.67;10.03;;;9.70;99.90;;;;;;5011591;28;20204;-69
2020/12/19 08:04:31;;;;;;;13.47;9.53;;;9.80;99.90;;;;;;5014490;28;20204;-67
2020/12/19 08:06:59;;;;;;;14.60;9.97;;;9.80;99.90;;;;;;5012397;28;20295;-69
2020/12/19 08:09:26;;;;;;;12.20;9.60;;;9.80;99.90;;;;;;5020165;28;20246;-69
2020/12/19 08:11:59;;;;;;;11.13;8.87;;;9.90;99.90;;;;;;5022862;28;20197;-68
2020/12/19 08:14:27;;;;;;;11.70;8.43;;;10.00;99.90;;;;;;5020542;28;20651;-68
2020/12/19 08:16:54;;;;;;;13.10;8.57;;;10.00;99.90;;;;;;5023223;28;20211;-67
2020/12/19 08:19:28;;;;;;;12.27;7.97;;;10.10;99.90;;;;;;5019121;28;20256;-67
2020/12/19 08:22:00;;;;;;;9.50;8.13;;;10.30;99.90;;;;;;5020019;28;20216;-68
2020/12/19 08:24:28;;;;;;;13.93;8.33;;;10.30;99.90;;;;;;5022246;28;20189;-67
2020/12/19 08:27:31;;;;;;;9.00;7.80;;;10.40;99.90;;;;;;5018568;28;20667;-67
2020/12/19 08:30:04;;;;;;;10.57;7.30;;;10.40;99.90;;;;;;5015768;28;20731;-68
2020/12/19 08:32:31;;;;;;;11.30;7.60;;;10.40;99.90;;;;;;5009818;28;20654;-69
2020/12/19 08:34:58;;;;;;;8.53;7.23;;;10.40;99.90;;;;;;5014998;28;20232;-67
2020/12/19 08:37:25;;;;;;;10.80;7.77;;;10.30;99.90;;;;;;5023043;28;20198;-68
2020/12/19 08:40:12;;;;;;;7.70;6.90;;;10.30;99.90;;;;;;5020678;28;20228;-68
2020/12/19 08:42:40;;;;;;;10.87;7.73;;;10.30;99.90;;;;;;5019300;28;20204;-67
2020/12/19 08:45:21;;;;;;;9.40;7.53;;;10.20;99.90;;;;;;5022780;28;20262;-67
2020/12/19 08:47:51;;;;;;;13.07;7.30;;;10.20;99.90;;;;;;5021005;28;20572;-68
2020/12/19 08:50:25;;;;;;;9.07;6.43;;;10.20;99.90;;;;;;5022597;28;20228;-67
2020/12/19 08:53:06;;;;;;;7.47;6.67;;;10.20;99.90;;;;;;5019687;28;20204;-68
2020/12/19 08:55:33;;;;;;;8.87;6.90;;;10.20;99.90;;;;;;5021779;28;20201;-67
2020/12/19 08:57:59;;;;;;;10.70;7.77;;;10.20;99.90;;;;;;5024062;28;21879;-69
2020/12/19 09:00:32;;;;;;;9.30;6.90;;;10.20;99.90;;;;;;5022194;28;20220;-66
2020/12/19 09:03:03;;;;;;;8.70;6.30;;;10.20;99.90;;;;;;5022943;28;20196;-67
2020/12/19 09:05:34;;;;;;;8.17;6.50;;;10.30;99.90;;;;;;5012066;28;20192;-68
2020/12/19 09:08:01;;;;;;;8.37;5.97;;;10.30;99.90;;;;;;5014605;28;20263;-68
2020/12/19 09:10:28;;;;;;;7.87;6.03;;;10.40;99.90;;;;;;5015650;28;20562;-67
2020/12/19 09:13:12;;;;;;;9.73;6.57;;;10.40;99.90;;;;;;5010347;28;20197;-67
2020/12/19 09:15:40;;;;;;;8.07;5.93;;;10.40;99.90;;;;;;5010812;28;20463;-67
2020/12/19 09:18:19;;;;;;;7.53;6.10;;;10.50;99.90;;;;;;5011043;28;20205;-68
2020/12/19 09:20:50;;;;;;;6.33;5.43;;;10.50;99.90;;;;;;5009579;28;20677;-68
2020/12/19 09:23:16;;;;;;;6.57;5.27;;;10.60;99.90;;;;;;5008920;28;20247;-66
2020/12/19 09:25:42;;;;;;;7.53;5.93;;;10.70;99.90;;;;;;5009159;28;20654;-66
2020/12/19 09:28:09;;;;;;;6.60;5.50;;;10.80;99.90;;;;;;5010555;28;20209;-67
2020/12/19 09:30:36;;;;;;;7.93;5.60;;;10.90;99.90;;;;;;5016465;28;20201;-67
2020/12/19 09:33:03;;;;;;;7.23;5.60;;;10.90;99.90;;;;;;5016652;28;20258;-69
2020/12/19 09:35:30;;;;;;;7.33;5.20;;;11.00;99.90;;;;;;5020440;28;20258;-68
2020/12/19 09:37:57;;;;;;;7.80;5.20;;;11.00;99.90;;;;;;5014783;28;20204;-68
2020/12/19 09:40:23;;;;;;;8.27;5.13;;;11.00;99.90;;;;;;5017433;28;20239;-68
2020/12/19 09:42:50;;;;;;;7.97;5.77;;;11.00;99.90;;;;;;5014993;28;20200;-68
2020/12/19 09:45:17;;;;;;;7.27;5.63;;;10.90;99.90;;;;;;5012471;28;20204;-66
2020/12/19 09:47:43;;;;;;;9.33;5.43;;;10.90;99.90;;;;;;5014167;28;20224;-68
2020/12/19 09:50:12;;;;;;;6.97;4.80;;;10.90;99.90;;;;;;5018251;28;20208;-68
2020/12/19 09:52:39;;;;;;;5.63;5.03;;;10.90;99.90;;;;;;5013891;28;20208;-68
2020/12/19 09:55:07;;;;;;;5.87;5.23;;;10.90;99.90;;;;;;5021400;28;20593;-68
2020/12/19 09:57:33;;;;;;;6.50;5.20;;;10.90;99.90;;;;;;5018871;28;20208;-68
2020/12/19 10:00:00;;;;;;;6.73;4.93;;;10.90;99.90;;;;;;5016244;28;20225;-68
2020/12/19 10:02:26;;;;;;;5.70;4.97;;;11.00;99.90;;;;;;5015305;28;20205;-68
2020/12/19 10:04:53;;;;;;;5.67;4.47;;;11.00;99.90;;;;;;5016863;28;20294;-68
2020/12/19 10:07:21;;;;;;;6.53;4.97;;;11.00;99.90;;;;;;5019042;28;20220;-67
2020/12/19 10:09:48;;;;;;;7.10;5.20;;;11.00;99.90;;;;;;5016361;28;20212;-70
2020/12/19 10:12:14;;;;;;;7.07;5.40;;;11.00;99.90;;;;;;5010432;28;20326;-66
2020/12/19 10:14:40;;;;;;;7.20;5.00;;;11.00;99.90;;;;;;5008118;28;20539;-66
2020/12/19 10:17:07;;;;;;;5.40;4.20;;;11.00;99.90;;;;;;5012736;28;20205;-66
2020/12/19 10:19:34;;;;;;;5.23;4.73;;;11.00;99.90;;;;;;5026897;28;20228;-65
2020/12/19 10:22:00;;;;;;;5.17;4.67;;;11.00;99.90;;;;;;5012939;28;20668;-67
2020/12/19 10:24:28;;;;;;;4.63;4.23;;;11.00;99.90;;;;;;5017396;28;20215;-67
2020/12/19 10:26:57;;;;;;;4.97;4.43;;;11.00;99.90;;;;;;5016472;28;20254;-66
2020/12/19 10:29:24;;;;;;;4.37;3.90;;;11.00;99.90;;;;;;5007449;28;20228;-67
2020/12/19 10:31:50;;;;;;;5.80;4.20;;;11.00;99.90;;;;;;5008467;28;20646;-67
2020/12/19 10:34:17;;;;;;;5.63;4.23;;;11.00;99.90;;;;;;5028258;28;20235;-66
2020/12/19 10:36:44;;;;;;;6.23;4.27;;;11.00;99.90;;;;;;5032177;28;20205;-66
2020/12/19 10:39:10;;;;;;;4.70;4.00;;;10.90;99.90;;;;;;5011956;28;20227;-67
2020/12/19 10:41:38;;;;;;;5.77;4.47;;;10.90;99.90;;;;;;5007978;28;20212;-69
2020/12/19 10:44:04;;;;;;;6.90;4.57;;;10.80;99.90;;;;;;5007453;28;20212;-67
2020/12/19 10:46:31;;;;;;;7.13;5.03;;;10.70;99.90;;;;;;5006784;28;20212;-66
2020/12/19 10:48:57;;;;;;;5.13;4.50;;;10.70;99.90;;;;;;5007593;28;20295;-66
2020/12/19 10:51:27;;;;;;;6.90;4.50;;;10.60;99.90;;;;;;5007726;28;20194;-68
2020/12/19 10:53:54;;;;;;;5.47;4.67;;;10.60;99.90;;;;;;5006725;28;20295;-68
2020/12/19 10:56:21;;;;;;;6.13;4.80;;;10.50;99.90;;;;;;5009095;28;20198;-67
2020/12/19 10:58:49;;;;;;;7.30;4.63;;;10.50;99.90;;;;;;5011068;28;20260;-68
2020/12/19 11:01:16;;;;;;;5.97;4.70;;;10.60;99.90;;;;;;5009655;28;20209;-68
2020/12/19 11:03:43;;;;;;;4.90;4.40;;;10.60;99.90;;;;;;5012893;28;20229;-66
2020/12/19 11:06:18;;;;;;;5.13;4.23;;;10.60;99.90;;;;;;5008755;28;20209;-67
2020/12/19 11:08:45;;;;;;;5.20;4.50;;;10.50;99.90;;;;;;5010949;28;20216;-67
2020/12/19 11:11:11;;;;;;;5.63;4.63;;;10.50;99.90;;;;;;5008013;28;20208;-70
2020/12/19 11:13:37;;;;;;;8.37;4.73;;;10.50;99.90;;;;;;5011059;28;20941;-69
2020/12/19 11:16:05;;;;;;;8.07;5.33;;;10.30;99.90;;;;;;5014404;28;21907;-67
2020/12/19 11:18:31;;;;;;;8.47;4.77;;;10.30;99.90;;;;;;5011073;28;20204;-67
2020/12/19 11:20:58;;;;;;;6.87;5.10;;;10.20;99.90;;;;;;5012425;28;20205;-67
2020/12/19 11:23:24;;;;;;;6.53;5.33;;;10.10;99.90;;;;;;5014368;28;20212;-67
2020/12/19 11:25:54;;;;;;;7.37;5.63;;;10.10;99.90;;;;;;5014973;28;20192;-67
2020/12/19 11:28:20;;;;;;;8.13;5.73;;;10.10;99.90;;;;;;5018918;28;20238;-67
2020/12/19 11:30:47;;;;;;;6.87;5.57;;;10.10;99.90;;;;;;5019603;28;20208;-67
2020/12/19 11:33:14;;;;;;;7.37;5.27;;;10.10;99.90;;;;;;5017666;28;20212;-67
2020/12/19 11:35:41;;;;;;;7.30;6.23;;;10.10;99.90;;;;;;5022040;28;20255;-67
2020/12/19 11:38:07;;;;;;;6.10;5.50;;;10.10;99.90;;;;;;5022630;28;20197;-67
2020/12/19 11:40:34;;;;;;;7.60;5.00;;;10.00;99.90;;;;;;5020219;28;20251;-67
2020/12/19 11:43:00;;;;;;;6.50;5.77;;;10.00;99.90;;;;;;5019743;28;20252;-68
2020/12/19 11:45:27;;;;;;;6.83;5.80;;;10.00;99.90;;;;;;5021132;28;20549;-67
2020/12/19 11:47:53;;;;;;;6.97;6.13;;;10.00;99.90;;;;;;5022804;28;20207;-67
2020/12/19 11:50:21;;;;;;;9.90;5.90;;;10.00;99.90;;;;;;5020619;28;20239;-67
2020/12/19 11:52:47;;;;;;;5.90;5.30;;;10.00;99.90;;;;;;5017704;28;20204;-67
2020/12/19 11:55:14;;;;;;;7.23;5.67;;;10.00;99.90;;;;;;5021719;28;20582;-67
2020/12/19 11:57:40;;;;;;;9.03;6.00;;;9.90;99.90;;;;;;5019857;28;20605;-67
2020/12/19 12:00:07;;;;;;;11.57;6.70;;;9.90;99.90;;;;;;5017955;28;20709;-67
2020/12/19 12:02:34;;;;;;;8.13;6.33;;;9.90;99.90;;;;;;5017882;28;20232;-68
2020/12/19 12:05:00;;;;;;;7.63;6.10;;;9.90;99.90;;;;;;5020369;28;20200;-67
2020/12/19 12:07:28;;;;;;;10.33;6.37;;;9.90;99.90;;;;;;5018386;28;20209;-68
2020/12/19 12:09:54;;;;;;;9.10;6.40;;;9.90;99.90;;;;;;5016531;28;20581;-66
2020/12/19 12:12:21;;;;;;;9.13;6.43;;;9.80;99.90;;;;;;5014227;28;20254;-66
2020/12/19 12:14:47;;;;;;;7.70;6.17;;;9.80;99.90;;;;;;5017448;28;21258;-68
2020/12/19 12:17:14;;;;;;;8.37;6.40;;;9.70;99.90;;;;;;5017233;28;20255;-67
2020/12/19 12:19:40;;;;;;;8.70;6.30;;;9.70;99.90;;;;;;5015773;28;20254;-67
2020/12/19 12:22:07;;;;;;;8.93;6.67;;;9.70;99.90;;;;;;5015906;28;20211;-67
2020/12/19 12:24:34;;;;;;;10.90;7.13;;;9.70;99.90;;;;;;5014844;28;20640;-67
2020/12/19 12:27:01;;;;;;;10.73;6.63;;;9.80;99.90;;;;;;5014433;28;20197;-67
2020/12/19 12:29:27;;;;;;;11.53;7.53;;;9.80;99.90;;;;;;5015881;28;20201;-67
2020/12/19 12:31:53;;;;;;;10.23;7.37;;;9.80;99.90;;;;;;5015309;28;20666;-67
2020/12/19 12:34:20;;;;;;;8.43;7.53;;;9.80;99.90;;;;;;5016302;28;20262;-67
2020/12/19 12:36:47;;;;;;;9.17;6.70;;;9.80;99.90;;;;;;5018745;28;20258;-66
2020/12/19 12:39:13;;;;;;;9.70;7.50;;;9.80;99.90;;;;;;5018255;28;20228;-65
2020/12/19 12:41:44;;;;;;;9.43;6.83;;;9.90;99.90;;;;;;5016753;28;20208;-66
2020/12/19 12:44:12;;;;;;;8.70;7.10;;;10.00;99.90;;;;;;5012831;28;20205;-67
2020/12/19 12:46:47;;;;;;;8.50;6.67;;;10.00;99.90;;;;;;5016883;28;20279;-66
2020/12/19 12:49:15;;;;;;;7.40;6.60;;;10.00;99.90;;;;;;5019887;28;20378;-67